Time;durP1;ratioP1;P1;durP2;ratioP2;P2;SDS_P1;SDS_P2;PMS_P1;PMS_P2;Temp;Humidity;BMP_temperature;BMP_pressure;BME280_temperature;BME280_humidity;BME280_pressure;Samples;Min_cycle;Max_cycle;Signal;HPM_P1;HPM_P2
2021/03/24 09:49:33;;;;;;;18.53;7.37;;;15.40;96.10;;;;;;4741541;27;20229;-67
2021/03/24 09:52:27;;;;;;;14.20;6.00;;;15.50;96.70;;;;;;4919601;29;20245;-68
2021/03/24 09:55:01;;;;;;;14.53;5.40;;;15.40;96.10;;;;;;4917501;29;21098;-67
2021/03/24 09:57:36;;;;;;;17.73;6.67;;;15.40;96.40;;;;;;4918533;29;20213;-68
2021/03/24 10:00:08;;;;;;;18.20;7.13;;;15.40;96.60;;;;;;4917517;29;20625;-67
2021/03/24 10:02:39;;;;;;;14.60;6.40;;;15.60;96.50;;;;;;4917967;29;20206;-70
2021/03/24 10:05:08;;;;;;;13.77;6.23;;;15.50;96.00;;;;;;4918083;29;20229;-70
2021/03/24 10:07:41;;;;;;;19.77;7.33;;;15.40;96.50;;;;;;4918949;29;20209;-67
2021/03/24 10:10:16;;;;;;;16.20;7.07;;;15.30;96.30;;;;;;4919177;29;20819;-68
2021/03/24 10:12:49;;;;;;;18.43;7.03;;;15.10;97.10;;;;;;4919343;29;20240;-68
2021/03/24 10:15:27;;;;;;;19.27;7.10;;;15.20;97.30;;;;;;4918260;29;20723;-69
2021/03/24 10:17:57;;;;;;;16.97;7.20;;;15.30;97.30;;;;;;4919262;29;20221;-68
2021/03/24 10:20:28;;;;;;;16.60;7.30;;;15.30;96.40;;;;;;4919170;29;20209;-69
2021/03/24 10:22:59;;;;;;;18.93;6.63;;;15.40;96.80;;;;;;4919201;29;20214;-69
2021/03/24 10:25:35;;;;;;;15.00;5.97;;;15.40;96.90;;;;;;4918907;29;20226;-69
2021/03/24 10:28:06;;;;;;;14.70;5.67;;;15.50;96.50;;;;;;4918922;29;20213;-68
2021/03/24 10:30:37;;;;;;;16.57;5.93;;;15.60;96.50;;;;;;4918629;29;20214;-68
2021/03/24 10:33:24;;;;;;;17.23;6.33;;;15.60;95.80;;;;;;4918429;29;20248;-68
2021/03/24 10:35:59;;;;;;;20.37;7.03;;;15.50;96.30;;;;;;4918692;29;20233;-68
2021/03/24 10:38:41;;;;;;;14.40;6.53;;;15.60;96.60;;;;;;4918752;29;20684;-68
2021/03/24 10:41:26;;;;;;;16.17;7.20;;;15.60;96.40;;;;;;4918830;29;20335;-68
2021/03/24 10:44:02;;;;;;;13.97;6.00;;;15.40;96.60;;;;;;4917469;29;20233;-69
2021/03/24 10:46:33;;;;;;;16.47;5.17;;;15.30;96.40;;;;;;4918684;29;20280;-67
2021/03/24 10:49:01;;;;;;;18.23;6.67;;;15.40;96.60;;;;;;4918518;29;20218;-69
2021/03/24 10:51:46;;;;;;;14.70;6.27;;;15.50;96.20;;;;;;4918354;29;20233;-72
2021/03/24 10:54:19;;;;;;;16.73;6.80;;;15.40;95.90;;;;;;4918501;29;20296;-70
2021/03/24 10:56:59;;;;;;;13.03;5.63;;;15.40;96.60;;;;;;4918618;29;20209;-72
2021/03/24 10:59:34;;;;;;;18.10;6.63;;;15.40;96.30;;;;;;4918128;29;20708;-69
2021/03/24 11:02:08;;;;;;;17.47;6.63;;;15.40;96.50;;;;;;4918285;29;20221;-69
2021/03/24 11:04:45;;;;;;;24.23;10.37;;;15.40;96.70;;;;;;4917926;29;20712;-69
2021/03/24 11:07:19;;;;;;;17.73;6.37;;;15.50;96.10;;;;;;4918321;29;20210;-68
2021/03/24 11:09:53;;;;;;;17.23;6.87;;;15.60;96.20;;;;;;4918166;29;20672;-69
2021/03/24 11:12:23;;;;;;;17.70;7.37;;;15.60;96.10;;;;;;4918407;29;20241;-69
2021/03/24 11:15:04;;;;;;;18.03;7.50;;;15.70;96.30;;;;;;4918209;29;20238;-69
2021/03/24 11:17:37;;;;;;;17.80;7.23;;;15.70;96.00;;;;;;4918259;29;20265;-69
2021/03/24 11:20:08;;;;;;;15.43;6.37;;;15.70;96.10;;;;;;4918006;29;20236;-69
2021/03/24 11:22:49;;;;;;;15.70;7.33;;;15.70;95.20;;;;;;4918037;29;20213;-68
2021/03/24 11:25:28;;;;;;;17.93;6.60;;;15.70;95.50;;;;;;4917694;29;20724;-69
2021/03/24 11:27:58;;;;;;;13.57;6.33;;;15.70;95.90;;;;;;4917578;29;20679;-69
2021/03/24 11:30:29;;;;;;;15.60;6.30;;;15.70;95.90;;;;;;4917909;29;20212;-69
2021/03/24 11:33:05;;;;;;;19.77;6.70;;;15.60;95.20;;;;;;4917749;29;20624;-73
2021/03/24 11:35:36;;;;;;;14.60;5.93;;;15.60;95.00;;;;;;4917617;29;20225;-68
2021/03/24 11:38:22;;;;;;;17.50;6.87;;;15.70;94.80;;;;;;4917883;29;20217;-68
2021/03/24 11:41:03;;;;;;;14.67;6.00;;;15.60;94.90;;;;;;4917832;29;20228;-68
2021/03/24 11:43:32;;;;;;;15.77;7.20;;;15.60;95.10;;;;;;4917541;29;20218;-68
2021/03/24 11:46:12;;;;;;;14.77;7.00;;;15.60;94.50;;;;;;4917898;29;20217;-69
2021/03/24 11:48:50;;;;;;;16.30;7.17;;;15.70;94.70;;;;;;4917325;29;20684;-68
2021/03/24 11:51:24;;;;;;;17.87;6.60;;;15.70;95.20;;;;;;4917505;29;20732;-69
2021/03/24 11:54:16;;;;;;;17.37;6.90;;;15.80;94.90;;;;;;4917437;29;20856;-69
2021/03/24 11:56:57;;;;;;;19.77;7.50;;;15.90;94.70;;;;;;4914714;29;20220;-69
2021/03/24 11:59:33;;;;;;;21.70;7.47;;;15.90;94.90;;;;;;4917465;29;20216;-69
2021/03/24 12:02:07;;;;;;;19.37;7.97;;;15.90;95.40;;;;;;4917592;29;20208;-68
2021/03/24 12:04:50;;;;;;;19.73;7.90;;;16.00;95.60;;;;;;4917464;29;20233;-72
2021/03/24 12:07:37;;;;;;;18.70;7.33;;;16.10;95.60;;;;;;4917282;29;20257;-69
2021/03/24 12:10:26;;;;;;;25.57;8.13;;;16.10;95.10;;;;;;4902409;29;20205;-69
2021/03/24 12:13:08;;;;;;;19.73;7.77;;;16.20;94.70;;;;;;4900078;29;20269;-68
2021/03/24 12:15:35;;;;;;;16.67;6.87;;;16.20;94.20;;;;;;4905266;29;20597;-68
2021/03/24 12:18:11;;;;;;;16.63;6.77;;;16.10;94.10;;;;;;4908943;29;20569;-69
2021/03/24 12:20:59;;;;;;;12.87;6.03;;;16.00;94.20;;;;;;4903440;29;20221;-69
2021/03/24 12:23:28;;;;;;;14.17;6.00;;;16.00;94.40;;;;;;4906152;29;20221;-69
2021/03/24 12:25:58;;;;;;;14.73;6.37;;;16.10;94.00;;;;;;4905643;29;20234;-69
2021/03/24 12:28:28;;;;;;;16.13;6.83;;;16.20;94.50;;;;;;4912263;29;20213;-69
2021/03/24 12:31:04;;;;;;;17.33;6.23;;;16.30;94.90;;;;;;4900211;29;20210;-68
2021/03/24 12:33:32;;;;;;;17.43;6.90;;;16.40;93.90;;;;;;4905355;29;20743;-69
2021/03/24 12:36:08;;;;;;;18.07;6.20;;;16.40;93.70;;;;;;4910647;29;20214;-69
2021/03/24 12:38:47;;;;;;;17.43;6.00;;;16.30;93.80;;;;;;4912157;29;20209;-68
2021/03/24 12:41:23;;;;;;;15.13;5.30;;;16.30;93.40;;;;;;4905399;29;20700;-69
2021/03/24 12:43:50;;;;;;;10.90;4.93;;;16.40;92.70;;;;;;4908246;29;20265;-68
2021/03/24 12:46:19;;;;;;;12.13;5.30;;;16.50;92.50;;;;;;4906617;29;20214;-69
2021/03/24 12:48:50;;;;;;;13.90;4.83;;;16.40;92.70;;;;;;4909069;29;20652;-69
2021/03/24 12:51:21;;;;;;;13.93;5.63;;;16.40;92.70;;;;;;4909418;29;20269;-68
2021/03/24 12:53:53;;;;;;;13.23;5.93;;;16.50;93.00;;;;;;4897843;29;20221;-69
2021/03/24 12:56:55;;;;;;;15.37;5.73;;;16.70;92.50;;;;;;4912461;29;20273;-69
2021/03/24 12:59:55;;;;;;;15.33;6.17;;;16.60;93.50;;;;;;4906998;29;20209;-68
2021/03/24 13:02:45;;;;;;;14.77;5.83;;;16.60;93.70;;;;;;4871720;29;20215;-69
2021/03/24 13:05:22;;;;;;;16.90;5.70;;;16.60;93.30;;;;;;4908534;29;20319;-71
2021/03/24 13:07:54;;;;;;;13.57;4.90;;;16.80;94.20;;;;;;4904269;29;20216;-70
2021/03/24 13:10:44;;;;;;;14.43;5.50;;;16.80;92.60;;;;;;4901043;29;20654;-70
2021/03/24 13:13:27;;;;;;;12.90;5.43;;;16.70;92.20;;;;;;4903564;29;20234;-69
2021/03/24 13:15:59;;;;;;;12.70;5.80;;;16.60;93.20;;;;;;4907638;29;20308;-69
2021/03/24 13:18:33;;;;;;;12.27;4.63;;;16.60;92.40;;;;;;4909098;29;20261;-69
2021/03/24 13:21:36;;;;;;;12.57;5.30;;;16.60;93.40;;;;;;4905572;29;20210;-69
2021/03/24 13:24:19;;;;;;;12.97;5.13;;;16.60;92.60;;;;;;4907940;29;20239;-68
2021/03/24 13:26:45;;;;;;;13.43;4.73;;;16.60;92.40;;;;;;4912731;29;20209;-68
2021/03/24 13:29:16;;;;;;;11.23;4.13;;;16.60;91.80;;;;;;4916233;29;20249;-68
2021/03/24 13:31:51;;;;;;;13.47;4.63;;;16.70;91.70;;;;;;4914825;29;20229;-68
2021/03/24 13:34:42;;;;;;;10.67;3.80;;;16.80;91.70;;;;;;4915760;29;20240;-68
2021/03/24 13:37:13;;;;;;;7.60;3.77;;;16.90;90.80;;;;;;4916246;29;20613;-68
2021/03/24 13:39:46;;;;;;;9.20;3.60;;;17.00;90.50;;;;;;4915160;29;20205;-68
2021/03/24 13:42:24;;;;;;;5.77;2.90;;;17.00;88.30;;;;;;4916297;29;20213;-68
2021/03/24 13:44:59;;;;;;;5.83;2.97;;;17.00;87.00;;;;;;4916190;29;20237;-68
2021/03/24 13:47:30;;;;;;;6.43;3.27;;;17.00;87.20;;;;;;4916304;29;20213;-68
2021/03/24 13:50:00;;;;;;;8.07;2.87;;;17.00;87.50;;;;;;4916819;29;20210;-68
2021/03/24 13:52:41;;;;;;;7.50;3.10;;;17.00;87.00;;;;;;4919476;29;20237;-69
2021/03/24 13:55:26;;;;;;;8.00;3.47;;;17.00;87.10;;;;;;4919248;29;20233;-68
2021/03/24 13:58:04;;;;;;;6.37;3.03;;;17.20;88.30;;;;;;4919804;29;20209;-69
2021/03/24 14:00:37;;;;;;;8.70;3.23;;;17.10;88.80;;;;;;4919667;29;20213;-68
2021/03/24 14:03:25;;;;;;;8.37;3.47;;;17.20;88.80;;;;;;4919111;29;20210;-69
2021/03/24 14:05:58;;;;;;;9.67;3.30;;;17.30;89.60;;;;;;4919204;29;20230;-69
2021/03/24 14:08:32;;;;;;;6.90;3.57;;;17.30;89.00;;;;;;4919243;29;20216;-69
2021/03/24 14:11:25;;;;;;;10.30;3.70;;;17.30;89.60;;;;;;4919312;29;20216;-68
2021/03/24 14:14:14;;;;;;;7.17;3.60;;;17.30;90.10;;;;;;4919382;29;20237;-68
2021/03/24 14:16:45;;;;;;;11.17;4.00;;;17.30;90.60;;;;;;4918939;29;20214;-68
2021/03/24 14:19:26;;;;;;;9.13;3.83;;;17.30;90.30;;;;;;4918936;29;20217;-68
2021/03/24 14:22:00;;;;;;;10.47;3.90;;;17.20;89.90;;;;;;4918929;29;20213;-68
2021/03/24 14:24:56;;;;;;;8.67;4.50;;;17.10;90.20;;;;;;4918891;29;20280;-68
2021/03/24 14:27:27;;;;;;;9.30;3.80;;;17.00;90.10;;;;;;4902364;29;20209;-68
2021/03/24 14:30:04;;;;;;;10.57;4.17;;;17.10;90.20;;;;;;4918799;29;20213;-68
2021/03/24 14:32:49;;;;;;;10.57;3.87;;;17.20;90.00;;;;;;4918892;29;20250;-68
2021/03/24 14:35:24;;;;;;;8.73;4.27;;;17.20;90.20;;;;;;4918887;29;20604;-68
2021/03/24 14:38:04;;;;;;;12.27;4.57;;;17.30;90.10;;;;;;4918922;29;20586;-69
2021/03/24 14:40:36;;;;;;;12.47;4.60;;;17.30;90.40;;;;;;4918796;29;20213;-68
2021/03/24 14:43:15;;;;;;;12.20;4.33;;;17.40;89.80;;;;;;4918831;29;20213;-69
2021/03/24 14:45:57;;;;;;;12.23;5.03;;;17.40;90.30;;;;;;4918520;29;20229;-69
2021/03/24 14:48:57;;;;;;;9.43;4.60;;;17.40;90.60;;;;;;4918408;29;20224;-69
2021/03/24 14:51:29;;;;;;;10.73;4.50;;;17.40;89.00;;;;;;4918219;29;20222;-68
2021/03/24 14:53:56;;;;;;;10.93;4.33;;;17.20;90.10;;;;;;4918585;29;20237;-68
2021/03/24 14:56:31;;;;;;;12.40;5.10;;;17.20;90.40;;;;;;4918450;29;20669;-69
2021/03/24 14:59:04;;;;;;;11.27;4.37;;;17.30;90.50;;;;;;4918161;29;20213;-68
2021/03/24 15:01:41;;;;;;;12.70;5.23;;;17.20;90.50;;;;;;4917479;29;20209;-68
2021/03/24 15:04:18;;;;;;;8.40;4.13;;;17.10;90.00;;;;;;4918268;29;20711;-68
2021/03/24 15:06:49;;;;;;;13.07;4.73;;;17.00;90.50;;;;;;4918203;29;20217;-68
2021/03/24 15:09:31;;;;;;;12.83;5.40;;;16.90;91.10;;;;;;4918342;29;20673;-68
2021/03/24 15:12:00;;;;;;;12.53;4.83;;;16.90;90.80;;;;;;4918179;29;20304;-68
2021/03/24 15:14:36;;;;;;;12.40;5.93;;;16.90;90.80;;;;;;4918289;29;20229;-68
2021/03/24 15:17:23;;;;;;;10.23;5.17;;;16.90;91.00;;;;;;4918110;29;20209;-68
2021/03/24 15:20:08;;;;;;;10.47;4.10;;;16.80;90.90;;;;;;4917943;29;20221;-69
2021/03/24 15:22:48;;;;;;;8.33;4.33;;;16.60;90.90;;;;;;4918361;29;20210;-68
2021/03/24 15:25:20;;;;;;;12.07;5.10;;;16.60;91.20;;;;;;4918072;29;20233;-69
2021/03/24 15:27:52;;;;;;;13.40;4.70;;;16.70;90.90;;;;;;4917916;29;20209;-68
2021/03/24 15:30:40;;;;;;;16.80;4.87;;;16.60;91.20;;;;;;4917921;29;20212;-68
2021/03/24 15:33:14;;;;;;;12.80;5.53;;;16.70;91.20;;;;;;4917838;29;20306;-69
2021/03/24 15:35:52;;;;;;;11.57;4.73;;;16.50;91.40;;;;;;4917707;29;20233;-68
2021/03/24 15:38:36;;;;;;;10.77;5.20;;;16.50;91.90;;;;;;4917516;29;20213;-69
2021/03/24 15:41:11;;;;;;;12.63;5.33;;;16.40;91.70;;;;;;4917593;29;20665;-68
2021/03/24 15:44:06;;;;;;;13.93;5.87;;;16.40;92.20;;;;;;4917573;29;20217;-68
2021/03/24 15:46:34;;;;;;;11.23;5.60;;;16.40;92.30;;;;;;4917289;29;20213;-69
2021/03/24 15:49:05;;;;;;;10.37;5.13;;;16.50;91.60;;;;;;4917696;29;20213;-69
2021/03/24 15:51:36;;;;;;;14.17;5.63;;;16.40;90.90;;;;;;4917596;29;20213;-68
2021/03/24 15:54:06;;;;;;;11.93;5.53;;;16.30;91.20;;;;;;4917582;29;20316;-68
2021/03/24 15:56:57;;;;;;;9.90;5.30;;;16.20;91.40;;;;;;4917628;29;20263;-68
2021/03/24 15:59:55;;;;;;;12.90;5.97;;;16.10;91.60;;;;;;4917372;29;20220;-68
2021/03/24 16:02:39;;;;;;;16.90;5.80;;;16.00;92.10;;;;;;4902881;29;20214;-68
2021/03/24 16:05:20;;;;;;;13.10;5.13;;;16.00;91.90;;;;;;4917376;29;20233;-69
2021/03/24 16:07:58;;;;;;;13.23;5.37;;;16.00;91.80;;;;;;4917338;29;20732;-68
2021/03/24 16:10:34;;;;;;;12.97;5.13;;;15.90;92.50;;;;;;4917187;29;20703;-68
2021/03/24 16:13:05;;;;;;;15.10;6.37;;;16.00;92.90;;;;;;4917125;29;20241;-68
2021/03/24 16:15:42;;;;;;;15.37;5.43;;;16.00;92.90;;;;;;4917106;29;20644;-68
2021/03/24 16:18:18;;;;;;;11.87;5.73;;;15.90;92.70;;;;;;4916951;29;20220;-68
2021/03/24 16:21:09;;;;;;;14.17;5.63;;;16.00;92.90;;;;;;4916919;29;20220;-68
2021/03/24 16:23:49;;;;;;;12.30;6.20;;;16.00;93.10;;;;;;4917120;29;20214;-68
2021/03/24 16:26:48;;;;;;;14.73;5.50;;;16.00;92.90;;;;;;4917035;29;20265;-69
2021/03/24 16:29:22;;;;;;;15.73;6.17;;;16.10;93.60;;;;;;4916919;29;20237;-68
2021/03/24 16:32:19;;;;;;;19.43;6.43;;;16.00;93.00;;;;;;4906669;29;20210;-68
2021/03/24 16:35:18;;;;;;;13.97;5.50;;;15.90;93.40;;;;;;4896516;29;20230;-69
2021/03/24 16:37:56;;;;;;;12.10;5.73;;;15.90;93.30;;;;;;4896761;29;20230;-68
2021/03/24 16:40:45;;;;;;;10.93;5.07;;;15.80;93.30;;;;;;4897663;29;20214;-68
2021/03/24 16:43:28;;;;;;;12.67;5.30;;;15.80;93.60;;;;;;4898484;29;20215;-69
2021/03/24 16:46:21;;;;;;;14.40;6.57;;;15.80;93.70;;;;;;4897933;29;20241;-68
2021/03/24 16:49:26;;;;;;;10.03;5.10;;;15.70;93.80;;;;;;4897839;29;20214;-69
2021/03/24 16:52:35;;;;;;;11.93;5.43;;;15.70;94.00;;;;;;4897671;29;20701;-68
2021/03/24 16:55:16;;;;;;;10.10;5.23;;;15.70;94.10;;;;;;4897877;29;20236;-68
2021/03/24 16:58:13;;;;;;;12.93;5.83;;;15.80;94.50;;;;;;4897840;29;20304;-69
2021/03/24 17:00:45;;;;;;;13.87;5.80;;;15.70;93.90;;;;;;4897937;29;20206;-69
2021/03/24 17:03:19;;;;;;;12.20;5.47;;;15.70;94.20;;;;;;4896509;29;20210;-69
2021/03/24 17:05:50;;;;;;;13.10;5.83;;;15.70;94.50;;;;;;4897630;29;20233;-68
2021/03/24 17:08:24;;;;;;;12.83;5.43;;;15.60;94.20;;;;;;4897681;29;20215;-68
2021/03/24 17:11:08;;;;;;;11.27;5.50;;;15.60;94.30;;;;;;4898029;29;20218;-68
2021/03/24 17:13:47;;;;;;;14.57;5.53;;;15.60;94.30;;;;;;4895679;29;20238;-69
2021/03/24 17:16:27;;;;;;;15.27;5.63;;;15.50;94.10;;;;;;4897824;29;20214;-68
2021/03/24 17:19:05;;;;;;;15.67;6.97;;;15.50;94.30;;;;;;4897399;29;20210;-68
2021/03/24 17:21:37;;;;;;;12.57;6.07;;;15.50;94.30;;;;;;4897844;29;20210;-68
2021/03/24 17:24:33;;;;;;;12.43;5.63;;;15.40;94.00;;;;;;4897637;29;20242;-69
2021/03/24 17:27:11;;;;;;;12.70;5.33;;;15.40;94.30;;;;;;4901163;29;20214;-67
2021/03/24 17:29:38;;;;;;;13.97;5.60;;;15.20;94.60;;;;;;4901153;29;20688;-68
2021/03/24 17:32:22;;;;;;;13.60;5.13;;;15.20;94.60;;;;;;4901298;29;20238;-68
2021/03/24 17:34:49;;;;;;;11.90;5.40;;;15.20;95.00;;;;;;4900811;29;20302;-69
2021/03/24 17:37:46;;;;;;;10.50;5.20;;;15.20;94.90;;;;;;4900966;29;20210;-67
2021/03/24 17:40:29;;;;;;;12.93;5.60;;;15.10;95.00;;;;;;4901286;29;20214;-67
2021/03/24 17:43:18;;;;;;;11.90;5.83;;;15.00;95.20;;;;;;4901130;29;20573;-67
2021/03/24 17:45:48;;;;;;;14.10;5.70;;;15.00;95.30;;;;;;4900715;29;20241;-67
2021/03/24 17:48:29;;;;;;;10.83;4.87;;;14.90;95.40;;;;;;4900686;29;20218;-67
2021/03/24 17:51:10;;;;;;;13.87;5.40;;;14.80;95.60;;;;;;4901067;29;20218;-67
2021/03/24 17:53:45;;;;;;;12.50;6.00;;;14.90;95.40;;;;;;4900604;29;20260;-68
2021/03/24 17:56:19;;;;;;;13.13;5.43;;;14.80;95.60;;;;;;4900773;29;20206;-67
2021/03/24 17:58:56;;;;;;;10.73;5.23;;;14.80;95.70;;;;;;4900954;29;20207;-68
2021/03/24 18:01:29;;;;;;;15.53;5.50;;;14.60;95.70;;;;;;4900879;29;20210;-67
2021/03/24 18:04:16;;;;;;;9.73;5.23;;;14.50;95.80;;;;;;4900524;29;20260;-67
2021/03/24 18:06:44;;;;;;;13.77;5.77;;;14.40;95.90;;;;;;4900502;29;20696;-67
2021/03/24 18:09:16;;;;;;;11.63;5.07;;;14.40;96.30;;;;;;4900312;29;20214;-67
2021/03/24 18:11:46;;;;;;;14.83;5.93;;;14.40;96.50;;;;;;4900543;29;20214;-67
2021/03/24 18:14:41;;;;;;;16.03;6.97;;;14.30;96.50;;;;;;4900309;29;20297;-67
2021/03/24 18:17:19;;;;;;;16.17;6.60;;;14.20;96.50;;;;;;4899327;29;20760;-66
2021/03/24 18:19:51;;;;;;;13.77;5.43;;;14.10;97.10;;;;;;4900425;29;20210;-67
2021/03/24 18:22:26;;;;;;;12.43;5.63;;;14.00;97.10;;;;;;4900412;29;20366;-67
2021/03/24 18:25:06;;;;;;;13.23;5.30;;;14.00;97.60;;;;;;4900565;29;20233;-69
2021/03/24 18:27:35;;;;;;;11.33;5.53;;;13.80;97.80;;;;;;4900206;29;20741;-67
2021/03/24 18:30:11;;;;;;;11.90;5.97;;;13.70;98.70;;;;;;4900205;29;20234;-67
2021/03/24 18:32:42;;;;;;;11.30;5.07;;;13.70;98.90;;;;;;4899969;29;20245;-69
2021/03/24 18:35:13;;;;;;;14.90;5.90;;;13.50;99.30;;;;;;4900071;29;20237;-69
2021/03/24 18:37:40;;;;;;;12.70;5.13;;;13.40;99.60;;;;;;4899262;29;20207;-67
2021/03/24 18:40:09;;;;;;;12.07;5.80;;;13.20;99.80;;;;;;4899920;29;20207;-69
2021/03/24 18:42:37;;;;;;;12.73;5.03;;;13.10;99.90;;;;;;4900469;29;20215;-68
2021/03/24 18:45:09;;;;;;;13.67;5.20;;;13.00;99.90;;;;;;4900073;29;20241;-69
2021/03/24 18:47:40;;;;;;;11.87;6.13;;;12.80;99.90;;;;;;4900063;29;20218;-67
2021/03/24 18:50:23;;;;;;;12.37;5.50;;;12.70;99.90;;;;;;4899677;29;20210;-67
2021/03/24 18:52:50;;;;;;;15.27;6.33;;;12.70;99.90;;;;;;4897885;29;20630;-67
2021/03/24 18:55:24;;;;;;;13.93;5.27;;;12.60;99.90;;;;;;4906641;29;20226;-68
2021/03/24 18:58:14;;;;;;;13.87;6.10;;;12.50;99.90;;;;;;4921653;29;20619;-68
2021/03/24 19:00:48;;;;;;;13.67;5.73;;;12.40;99.90;;;;;;4913850;29;20649;-68
2021/03/24 19:03:18;;;;;;;14.73;5.73;;;12.40;99.90;;;;;;4902051;29;20222;-68
2021/03/24 19:05:44;;;;;;;15.00;6.73;;;12.40;99.90;;;;;;4904283;29;20234;-67
2021/03/24 19:08:17;;;;;;;19.67;7.87;;;12.30;99.90;;;;;;4909364;29;20266;-68
2021/03/24 19:10:57;;;;;;;17.63;6.43;;;12.10;99.90;;;;;;4901723;29;20210;-67
2021/03/24 19:13:40;;;;;;;16.97;5.77;;;12.00;99.90;;;;;;4912652;29;20608;-67
2021/03/24 19:16:26;;;;;;;14.63;6.80;;;11.90;99.90;;;;;;4906824;29;20340;-68
2021/03/24 19:19:17;;;;;;;15.60;6.47;;;11.70;99.90;;;;;;4900905;29;20293;-68
2021/03/24 19:21:46;;;;;;;11.63;5.53;;;11.50;99.90;;;;;;4906253;29;20568;-68
2021/03/24 19:24:29;;;;;;;17.23;7.83;;;11.30;99.90;;;;;;4913256;29;20238;-68
2021/03/24 19:27:05;;;;;;;21.23;9.07;;;11.30;99.90;;;;;;4904128;29;20217;-68
2021/03/24 19:29:35;;;;;;;18.73;8.30;;;11.60;99.90;;;;;;4905597;29;20317;-68
2021/03/24 19:32:14;;;;;;;19.77;8.40;;;11.80;99.90;;;;;;4908142;29;20217;-68
2021/03/24 19:34:41;;;;;;;18.13;7.20;;;11.70;99.90;;;;;;4910399;29;20225;-68
2021/03/24 19:37:17;;;;;;;21.43;7.90;;;11.70;99.90;;;;;;4901610;29;20210;-69
2021/03/24 19:39:44;;;;;;;17.57;7.80;;;11.70;99.90;;;;;;4910299;29;20221;-68
2021/03/24 19:42:28;;;;;;;19.40;7.77;;;11.70;99.90;;;;;;4910352;29;20571;-68
2021/03/24 19:44:56;;;;;;;14.60;7.10;;;11.70;99.90;;;;;;4905544;29;20233;-67
2021/03/24 19:47:35;;;;;;;17.50;8.27;;;11.70;99.90;;;;;;4915024;29;20667;-68
2021/03/24 19:50:12;;;;;;;20.17;7.03;;;11.60;99.90;;;;;;4916045;29;20291;-68
2021/03/24 19:52:38;;;;;;;23.07;8.03;;;11.60;99.90;;;;;;4914548;29;20237;-69
2021/03/24 19:55:07;;;;;;;19.37;7.90;;;11.60;99.90;;;;;;4913588;29;20230;-67
2021/03/24 19:57:36;;;;;;;18.60;7.47;;;11.60;99.90;;;;;;4907886;29;20573;-72
2021/03/24 20:00:16;;;;;;;16.97;6.77;;;11.60;99.90;;;;;;4913305;29;20586;-68
2021/03/24 20:03:12;;;;;;;16.90;7.33;;;11.50;99.90;;;;;;4914266;29;20213;-69
2021/03/24 20:05:43;;;;;;;18.03;7.33;;;11.50;99.90;;;;;;4915678;29;20284;-68
2021/03/24 20:08:21;;;;;;;22.17;8.20;;;11.40;99.90;;;;;;4905139;29;20207;-68
2021/03/24 20:10:51;;;;;;;18.53;7.93;;;11.50;99.90;;;;;;4901428;29;20245;-67
2021/03/24 20:13:29;;;;;;;20.57;8.00;;;11.30;99.90;;;;;;4900764;29;20234;-67
2021/03/24 20:15:56;;;;;;;18.40;7.40;;;11.20;99.90;;;;;;4909053;29;20245;-69
2021/03/24 20:18:26;;;;;;;18.60;6.83;;;11.10;99.90;;;;;;4909110;29;20547;-69
2021/03/24 20:20:56;;;;;;;16.97;7.23;;;11.10;99.90;;;;;;4909892;29;20546;-69
2021/03/24 20:23:24;;;;;;;14.87;5.90;;;11.10;99.90;;;;;;4903427;29;20245;-71
2021/03/24 20:25:52;;;;;;;15.93;6.17;;;11.10;99.90;;;;;;4915480;29;20296;-69
2021/03/24 20:28:20;;;;;;;21.00;7.77;;;11.10;99.90;;;;;;4907324;29;20221;-69
2021/03/24 20:30:46;;;;;;;16.60;7.00;;;11.10;99.90;;;;;;4907674;29;20221;-68
2021/03/24 20:33:20;;;;;;;15.60;6.80;;;11.00;99.90;;;;;;4910197;29;20328;-69
2021/03/24 20:35:55;;;;;;;20.57;7.23;;;10.90;99.90;;;;;;4908443;29;20230;-69
2021/03/24 20:38:38;;;;;;;14.97;6.70;;;10.80;99.90;;;;;;4898077;29;20216;-70
2021/03/24 20:41:13;;;;;;;15.73;6.20;;;10.80;99.90;;;;;;4906404;29;20229;-68
2021/03/24 20:43:42;;;;;;;13.67;6.20;;;10.80;99.90;;;;;;4909182;29;20205;-70
2021/03/24 20:46:10;;;;;;;18.33;7.63;;;10.80;99.90;;;;;;4904208;29;20249;-68
2021/03/24 20:48:37;;;;;;;17.43;7.30;;;10.80;99.90;;;;;;4910473;29;20230;-69
2021/03/24 20:51:04;;;;;;;17.23;6.13;;;10.80;99.90;;;;;;4909421;29;20669;-67
2021/03/24 20:53:32;;;;;;;17.47;6.80;;;10.80;99.90;;;;;;4903158;29;20241;-67
2021/03/24 20:55:59;;;;;;;15.83;6.80;;;10.60;99.90;;;;;;4906771;29;20220;-68
2021/03/24 20:58:29;;;;;;;14.33;5.87;;;10.60;99.90;;;;;;4900701;29;20216;-69
2021/03/24 21:00:57;;;;;;;18.27;6.00;;;10.60;99.90;;;;;;4911147;29;20224;-68
2021/03/24 21:03:24;;;;;;;13.97;6.73;;;10.60;99.90;;;;;;4908932;29;20296;-67
2021/03/24 21:05:52;;;;;;;19.53;7.53;;;10.60;99.90;;;;;;4911199;29;20262;-66
2021/03/24 21:08:21;;;;;;;15.73;6.70;;;10.60;99.90;;;;;;4909349;29;20252;-67
2021/03/24 21:10:48;;;;;;;16.53;7.37;;;10.50;99.90;;;;;;4908245;29;20218;-67
2021/03/24 21:13:16;;;;;;;15.33;6.83;;;10.50;99.90;;;;;;4908598;29;20233;-67
2021/03/24 21:15:44;;;;;;;17.93;7.70;;;10.40;99.90;;;;;;4912257;29;20225;-66
2021/03/24 21:18:21;;;;;;;16.73;6.97;;;10.30;99.90;;;;;;4910850;29;20216;-67
2021/03/24 21:20:48;;;;;;;20.47;7.27;;;10.20;99.90;;;;;;4909593;29;20202;-67
2021/03/24 21:23:14;;;;;;;14.33;6.67;;;10.10;99.90;;;;;;4909102;29;20214;-66
2021/03/24 21:25:40;;;;;;;12.97;6.43;;;10.10;99.90;;;;;;4909829;29;20233;-68
2021/03/24 21:28:07;;;;;;;19.23;7.17;;;10.00;99.90;;;;;;4911134;29;20673;-67
2021/03/24 21:30:36;;;;;;;13.30;5.77;;;9.90;99.90;;;;;;4906269;29;20229;-67
2021/03/24 21:33:04;;;;;;;16.67;6.57;;;9.80;99.90;;;;;;4912519;29;20581;-67
2021/03/24 21:35:30;;;;;;;14.83;6.10;;;9.70;99.90;;;;;;4906889;29;20260;-67
2021/03/24 21:37:57;;;;;;;16.27;6.60;;;9.60;99.90;;;;;;4909897;29;20217;-67
2021/03/24 21:40:28;;;;;;;15.03;6.70;;;9.40;99.90;;;;;;4918127;29;20311;-67
2021/03/24 21:42:55;;;;;;;18.30;6.73;;;9.40;99.90;;;;;;4913533;29;20210;-67
2021/03/24 21:45:22;;;;;;;16.60;6.17;;;9.40;99.90;;;;;;4911367;29;20233;-68
2021/03/24 21:47:55;;;;;;;14.43;6.47;;;9.40;99.90;;;;;;4908189;29;20224;-67
2021/03/24 21:50:25;;;;;;;14.87;5.80;;;9.40;99.90;;;;;;4907310;29;20211;-67
2021/03/24 21:52:52;;;;;;;11.30;5.93;;;9.40;99.90;;;;;;4904705;29;20229;-67
2021/03/24 21:55:18;;;;;;;13.97;6.20;;;9.40;99.90;;;;;;4906332;29;20226;-67
2021/03/24 21:58:10;;;;;;;15.23;5.73;;;9.20;99.90;;;;;;4912754;29;20213;-68
